Open Full Screen Window  High Contrast Mode
Wind Gusting 16 knots
10
October 21, 2014 12:41 PM EDT
Weather Information
Wind Direction
  350 °
Wind Speed
  10 kt (12 mph)
Wind Gust
  16 kt (18 mph)
Altimeter
30.03 in
Visibility
10 SM
Temperature
12° C
54° F
Dewpoint
05° C
41° F
Humidity
63%
1hr Rain Fall
00.00 in.
24hr Rain Fall
00.01 in.
Sky Condition
Overcast @ 4,700 ft
Scattered @ 3,900 ft
VFR

METAR KI69 211641Z AUTO 35010G16KT 10SM SCT039 OVC047 12/05 A3003 RMK AO1

*Background is not an actual portrayal of the airport.